createdAt,value
2022-12-16T00:02:03.250Z,90.89
2022-12-16T00:04:32.891Z,90.86
2022-12-16T00:07:01.285Z,90.32
2022-12-16T00:09:29.536Z,90.59
2022-12-16T00:11:57.771Z,90.21
2022-12-16T00:14:27.383Z,90.39
2022-12-16T00:16:55.575Z,90.59
2022-12-16T00:19:24.603Z,90.16
2022-12-16T00:21:54.223Z,90.88
2022-12-16T00:24:22.996Z,90.34
2022-12-16T00:26:51.311Z,90.86
2022-12-16T00:29:20.045Z,90.65
2022-12-16T00:31:48.730Z,90.67
2022-12-16T00:34:17.282Z,91.19
2022-12-16T00:36:45.699Z,90.78
2022-12-16T00:39:15.473Z,90.76
2022-12-16T00:41:43.799Z,91.23
2022-12-16T00:44:12.269Z,90.73
2022-12-16T00:46:41.442Z,90.93
2022-12-16T00:49:09.800Z,91.09
2022-12-16T00:51:38.150Z,90.50
2022-12-16T00:54:06.442Z,90.93
2022-12-16T00:56:36.930Z,90.66
2022-12-16T00:59:05.578Z,90.65
2022-12-16T01:01:33.965Z,90.15
2022-12-16T01:04:04.402Z,90.56
2022-12-16T01:06:32.891Z,90.62
2022-12-16T01:09:01.638Z,90.20
2022-12-16T01:11:30.082Z,90.67
2022-12-16T01:14:00.126Z,90.37
2022-12-16T01:16:29.492Z,90.34
2022-12-16T01:18:57.984Z,90.17
2022-12-16T01:21:26.327Z,90.04
2022-12-16T01:23:56.953Z,90.56
2022-12-16T01:26:25.516Z,90.52
2022-12-16T01:28:56.822Z,89.81
2022-12-16T01:31:26.630Z,90.17
2022-12-16T01:33:55.183Z,90.03
2022-12-16T01:36:23.908Z,90.09
2022-12-16T01:38:52.517Z,89.67
2022-12-16T01:41:21.232Z,89.69
2022-12-16T01:43:49.932Z,90.12
2022-12-16T01:46:21.929Z,90.05
2022-12-16T01:48:55.193Z,90.58
2022-12-16T01:51:27.091Z,89.87
2022-12-16T01:53:58.843Z,90.09
2022-12-16T01:56:29.193Z,90.08
2022-12-16T01:58:58.348Z,90.23
2022-12-16T02:01:27.059Z,89.71
2022-12-16T02:04:01.914Z,90.33
2022-12-16T02:06:30.876Z,90.54
2022-12-16T02:09:01.101Z,90.77
2022-12-16T02:11:44.292Z,90.26
2022-12-16T02:14:29.571Z,90.05
2022-12-16T02:17:01.276Z,89.79
2022-12-16T02:19:48.536Z,90.33
2022-12-16T02:22:27.241Z,90.01
2022-12-16T02:25:13.147Z,89.84
2022-12-16T02:27:55.204Z,90.32
2022-12-16T02:30:37.103Z,90.23
2022-12-16T02:33:10.010Z,89.80
2022-12-16T02:35:41.228Z,90.11
2022-12-16T02:38:14.944Z,89.46
2022-12-16T02:40:45.952Z,89.94
2022-12-16T02:43:18.973Z,90.10
2022-12-16T02:45:50.128Z,89.72
2022-12-16T02:48:18.723Z,89.78
2022-12-16T02:50:49.976Z,90.03
2022-12-16T02:53:21.893Z,89.47
2022-12-16T02:55:54.614Z,89.63
2022-12-16T02:58:28.950Z,89.65
2022-12-16T03:01:01.120Z,89.50
2022-12-16T03:03:33.617Z,89.31
2022-12-16T03:06:06.113Z,89.99
2022-12-16T03:08:37.782Z,89.46
2022-12-16T03:11:08.119Z,89.11
2022-12-16T03:13:39.284Z,89.24
2022-12-16T03:16:11.161Z,90.21
2022-12-16T03:18:43.196Z,90.08
2022-12-16T03:21:13.619Z,89.79
2022-12-16T03:23:45.051Z,89.67
2022-12-16T03:26:16.350Z,89.89
2022-12-16T03:28:49.493Z,90.05
2022-12-16T03:31:26.648Z,89.68
2022-12-16T03:33:58.454Z,89.99
2022-12-16T03:36:27.990Z,89.68
2022-12-16T03:38:57.099Z,89.34
2022-12-16T03:41:26.061Z,90.10
2022-12-16T03:43:55.192Z,89.97
2022-12-16T03:46:25.429Z,90.18
2022-12-16T03:48:54.123Z,90.20
2022-12-16T03:51:22.394Z,89.79
2022-12-16T03:53:55.508Z,89.83
2022-12-16T03:56:24.322Z,89.65
2022-12-16T03:58:52.632Z,89.26
2022-12-16T04:01:21.050Z,90.20
2022-12-16T04:03:51.405Z,89.82
2022-12-16T04:06:19.756Z,89.91
2022-12-16T04:08:48.702Z,89.14
2022-12-16T04:11:34.566Z,89.11
2022-12-16T04:14:20.622Z,88.94
2022-12-16T04:17:06.876Z,89.65
2022-12-16T04:19:55.873Z,89.55
2022-12-16T04:22:43.802Z,89.78
2022-12-16T04:25:13.922Z,89.65
2022-12-16T04:27:46.732Z,89.51
2022-12-16T04:30:22.112Z,89.75
2022-12-16T04:33:10.999Z,89.92
2022-12-16T04:35:58.426Z,89.09
2022-12-16T04:38:44.721Z,89.49
2022-12-16T04:41:31.130Z,89.36
2022-12-16T04:44:18.093Z,89.48
2022-12-16T04:47:03.991Z,90.07
2022-12-16T04:49:50.392Z,90.17
2022-12-16T04:52:38.499Z,89.76
2022-12-16T04:55:24.733Z,90.06
2022-12-16T04:58:11.758Z,90.38
2022-12-16T05:00:58.054Z,90.00
2022-12-16T05:03:44.930Z,90.87
2022-12-16T05:06:31.535Z,90.51
2022-12-16T05:09:19.435Z,90.54
2022-12-16T05:12:05.795Z,90.59
2022-12-16T05:14:51.913Z,91.35
2022-12-16T05:17:37.713Z,90.93
2022-12-16T05:20:24.677Z,90.96
2022-12-16T05:23:10.872Z,90.79
2022-12-16T05:25:58.342Z,91.13
2022-12-16T05:28:45.836Z,90.64
2022-12-16T05:31:31.771Z,90.63
2022-12-16T05:34:17.905Z,91.18
2022-12-16T05:37:04.282Z,91.20
2022-12-16T05:39:50.677Z,91.56
2022-12-16T05:42:38.396Z,91.36
2022-12-16T05:45:24.601Z,90.54
2022-12-16T05:48:10.655Z,90.78
2022-12-16T05:50:56.418Z,91.28
2022-12-16T05:53:42.926Z,90.92
2022-12-16T05:56:28.709Z,91.59
2022-12-16T05:59:16.252Z,91.95
2022-12-16T06:02:02.076Z,91.78
2022-12-16T06:04:48.357Z,90.73
2022-12-16T06:07:34.136Z,91.51
2022-12-16T06:10:20.130Z,91.09
2022-12-16T06:13:06.158Z,90.67
2022-12-16T06:15:53.679Z,90.54
2022-12-16T06:18:54.397Z,90.86
2022-12-16T06:21:40.295Z,90.49
2022-12-16T06:24:26.178Z,90.43
2022-12-16T06:27:11.904Z,90.63
2022-12-16T06:29:57.668Z,91.32
2022-12-16T06:32:44.888Z,91.02
2022-12-16T06:35:42.217Z,90.79
2022-12-16T06:38:28.348Z,90.36
2022-12-16T06:41:15.492Z,90.71
2022-12-16T06:44:01.370Z,90.16
2022-12-16T06:46:47.456Z,90.22
2022-12-16T06:49:34.744Z,89.98
2022-12-16T06:52:20.562Z,89.71
2022-12-16T06:55:05.983Z,89.51
2022-12-16T06:57:51.781Z,89.92
2022-12-16T07:00:38.100Z,90.62
2022-12-16T07:03:24.607Z,89.79
2022-12-16T07:06:13.057Z,90.01
2022-12-16T07:08:59.183Z,90.00
2022-12-16T07:11:45.143Z,89.91
2022-12-16T07:14:30.946Z,90.01
2022-12-16T07:17:17.452Z,89.84
2022-12-16T07:20:03.995Z,89.08
2022-12-16T07:22:58.436Z,89.50
2022-12-16T07:25:47.605Z,89.21
2022-12-16T07:28:33.976Z,88.92
2022-12-16T07:31:20.235Z,89.72
2022-12-16T07:34:06.466Z,89.21
2022-12-16T07:36:52.922Z,89.25
2022-12-16T07:39:40.578Z,90.21
2022-12-16T07:42:26.847Z,89.64
2022-12-16T07:45:13.101Z,90.32
2022-12-16T07:48:05.404Z,89.88
2022-12-16T07:50:47.754Z,90.00
2022-12-16T07:53:34.703Z,89.94
2022-12-16T07:56:22.830Z,90.20
2022-12-16T07:59:08.859Z,90.15
2022-12-16T08:01:55.266Z,90.02
2022-12-16T08:04:43.950Z,89.56
2022-12-16T08:07:45.095Z,89.68
2022-12-16T08:10:31.021Z,89.68
2022-12-16T08:13:25.513Z,89.71
2022-12-16T08:16:12.503Z,89.99
2022-12-16T08:18:58.651Z,90.20
2022-12-16T08:21:45.208Z,89.43
2022-12-16T08:24:33.262Z,89.23
2022-12-16T08:27:27.358Z,89.71
2022-12-16T08:30:14.909Z,86.50
2022-12-16T08:33:06.135Z,88.07
2022-12-16T08:35:59.531Z,88.59
2022-12-16T08:38:45.414Z,87.16
2022-12-16T08:41:31.221Z,81.40
2022-12-16T08:44:17.283Z,78.83
2022-12-16T08:47:04.734Z,72.82
2022-12-16T08:49:52.562Z,70.86
2022-12-16T08:52:42.049Z,72.47
2022-12-16T08:55:29.843Z,68.88
2022-12-16T08:58:30.608Z,71.61
2022-12-16T09:01:16.525Z,74.53
2022-12-16T09:04:03.923Z,75.01
2022-12-16T09:06:49.944Z,71.23
2022-12-16T09:09:34.927Z,72.89
2022-12-16T09:12:20.769Z,73.83
2022-12-16T09:15:07.282Z,75.30
2022-12-16T09:17:53.424Z,66.98
2022-12-16T09:20:42.312Z,69.98
2022-12-16T09:23:28.340Z,68.27
2022-12-16T09:26:14.180Z,69.27
2022-12-16T09:29:00.364Z,65.83
2022-12-16T09:31:48.573Z,68.01
2022-12-16T09:34:36.599Z,66.72
2022-12-16T09:37:28.014Z,69.08
2022-12-16T09:40:13.808Z,69.00
2022-12-16T09:43:04.112Z,66.45
2022-12-16T09:45:51.924Z,66.29
2022-12-16T09:48:41.993Z,65.02
2022-12-16T09:51:28.247Z,65.02
2022-12-16T09:54:16.342Z,63.36
2022-12-16T09:57:03.367Z,60.10
2022-12-16T09:59:52.933Z,58.85
2022-12-16T10:02:41.180Z,54.74
2022-12-16T10:05:29.096Z,52.07
2022-12-16T10:08:19.516Z,52.65
2022-12-16T10:11:25.777Z,50.84
2022-12-16T10:14:17.861Z,48.10
2022-12-16T10:17:10.663Z,42.73
2022-12-16T10:20:08.930Z,37.42
2022-12-16T10:22:57.418Z,33.95
2022-12-16T10:25:47.437Z,31.81
2022-12-16T10:28:50.870Z,30.06
2022-12-16T10:31:37.126Z,28.10
2022-12-16T10:34:36.642Z,28.02
2022-12-16T10:37:23.101Z,27.31
2022-12-16T10:40:11.653Z,26.46
2022-12-16T10:43:02.828Z,26.00
2022-12-16T10:45:53.017Z,24.66
2022-12-16T10:48:49.285Z,24.51
2022-12-16T10:51:39.537Z,25.10
2022-12-16T10:54:39.403Z,24.60
2022-12-16T10:57:29.265Z,24.63
2022-12-16T11:00:27.222Z,24.17
2022-12-16T11:03:14.905Z,25.21
2022-12-16T11:06:01.091Z,25.38
2022-12-16T11:08:48.381Z,25.38
2022-12-16T11:11:40.755Z,26.16
2022-12-16T11:15:05.559Z,25.61
2022-12-16T11:17:53.630Z,25.77
2022-12-16T11:20:44.778Z,25.70
2022-12-16T11:23:33.817Z,25.78
2022-12-16T11:26:36.240Z,25.66
2022-12-16T11:29:24.390Z,24.64
2022-12-16T11:32:13.130Z,25.44
2022-12-16T11:35:00.274Z,28.19
2022-12-16T11:37:48.005Z,27.91
2022-12-16T11:40:35.286Z,26.16
2022-12-16T11:43:22.052Z,26.25
2022-12-16T11:46:09.268Z,26.85
2022-12-16T11:48:59.295Z,27.19
2022-12-16T11:51:47.059Z,26.03
2022-12-16T11:54:36.908Z,26.38
2022-12-16T11:57:24.634Z,26.36
2022-12-16T12:00:11.764Z,26.48
2022-12-16T12:03:00.973Z,25.71
2022-12-16T12:05:49.591Z,26.88
2022-12-16T12:08:39.766Z,27.90
2022-12-16T12:11:31.843Z,29.52
2022-12-16T12:14:23.240Z,30.34
2022-12-16T12:17:17.666Z,34.26
2022-12-16T12:20:17.740Z,38.51
2022-12-16T12:23:12.851Z,42.82
2022-12-16T12:26:03.649Z,45.96
2022-12-16T12:28:59.791Z,48.41
2022-12-16T12:31:51.052Z,53.16
2022-12-16T12:34:41.330Z,55.10
2022-12-16T12:37:30.934Z,56.77
2022-12-16T12:40:23.314Z,58.55
2022-12-16T12:43:10.792Z,59.38
2022-12-16T12:46:13.436Z,61.40
2022-12-16T12:49:03.176Z,62.36
2022-12-16T12:52:03.086Z,63.06
2022-12-16T12:54:52.687Z,64.74
2022-12-16T12:57:41.454Z,65.87
2022-12-16T13:00:34.075Z,66.63
2022-12-16T13:03:24.322Z,67.02
2022-12-16T13:06:11.530Z,66.58
2022-12-16T13:09:03.055Z,67.11
2022-12-16T13:11:49.249Z,67.04
2022-12-16T13:14:59.194Z,68.16
2022-12-16T13:17:46.149Z,67.60
2022-12-16T13:20:47.230Z,68.78
2022-12-16T13:23:48.973Z,68.98
2022-12-16T13:26:36.002Z,69.94
2022-12-16T13:29:26.792Z,69.74
2022-12-16T13:32:19.082Z,69.79
2022-12-16T13:35:17.233Z,69.61
2022-12-16T13:38:10.204Z,70.46
2022-12-16T13:41:11.572Z,70.64
2022-12-16T13:44:03.507Z,70.04
2022-12-16T13:46:58.266Z,70.43
2022-12-16T13:50:01.952Z,71.14
2022-12-16T13:52:53.950Z,71.53
2022-12-16T13:55:45.135Z,71.57
2022-12-16T13:58:37.936Z,71.92
2022-12-16T14:01:28.497Z,72.53
2022-12-16T14:04:15.146Z,69.50
2022-12-16T14:07:01.971Z,63.77
2022-12-16T14:09:54.066Z,63.90
2022-12-16T14:13:06.905Z,66.39
2022-12-16T14:16:00.318Z,68.82
2022-12-16T14:18:50.559Z,70.55
2022-12-16T14:21:39.913Z,71.32
2022-12-16T14:24:31.602Z,72.88
2022-12-16T14:27:23.339Z,73.12
2022-12-16T14:30:09.456Z,74.38
2022-12-16T14:32:56.721Z,74.99
2022-12-16T14:35:43.898Z,75.76
2022-12-16T14:38:40.697Z,76.07
2022-12-16T14:41:29.651Z,76.52
2022-12-16T14:44:15.830Z,77.08
2022-12-16T14:47:02.288Z,77.53
2022-12-16T14:49:49.444Z,78.24
2022-12-16T14:52:36.475Z,78.99
2022-12-16T14:55:32.920Z,79.56
2022-12-16T14:58:23.357Z,80.14
2022-12-16T15:01:15.602Z,80.68
2022-12-16T15:04:03.762Z,81.41
2022-12-16T15:06:52.809Z,81.95
2022-12-16T15:09:45.608Z,82.45
2022-12-16T15:12:32.357Z,82.87
2022-12-16T15:15:19.711Z,83.51
2022-12-16T15:18:08.392Z,83.77
2022-12-16T15:20:55.436Z,84.10
2022-12-16T15:23:44.525Z,85.13
2022-12-16T15:26:35.413Z,85.28
2022-12-16T15:29:36.059Z,85.82
2022-12-16T15:32:46.364Z,86.18
2022-12-16T15:35:56.522Z,86.84
2022-12-16T15:38:46.745Z,87.42
2022-12-16T15:41:36.380Z,87.95
2022-12-16T15:44:22.097Z,87.98
2022-12-16T15:47:08.127Z,88.57
2022-12-16T15:50:02.060Z,89.06
2022-12-16T15:52:53.143Z,88.87
2022-12-16T15:55:49.234Z,89.31
2022-12-16T15:58:39.713Z,89.31
2022-12-16T16:01:26.637Z,89.42
2022-12-16T16:04:13.495Z,89.70
2022-12-16T16:07:00.608Z,89.97
2022-12-16T16:09:48.348Z,90.51
2022-12-16T16:12:36.563Z,90.85
2022-12-16T16:15:23.116Z,90.93
2022-12-16T16:18:12.152Z,90.59
2022-12-16T16:20:58.479Z,90.74
2022-12-16T16:23:44.124Z,91.61
2022-12-16T16:26:30.742Z,91.73
2022-12-16T16:29:18.268Z,91.46
2022-12-16T16:32:04.732Z,92.04
2022-12-16T16:34:50.733Z,92.02
2022-12-16T16:37:38.011Z,91.84
2022-12-16T16:40:31.337Z,91.99
2022-12-16T16:43:17.233Z,92.20
2022-12-16T16:46:10.700Z,92.28
2022-12-16T16:48:56.700Z,92.47
2022-12-16T16:51:42.458Z,92.28
2022-12-16T16:54:39.858Z,92.25
2022-12-16T16:57:27.512Z,92.52
2022-12-16T17:00:13.667Z,92.85
2022-12-16T17:03:00.985Z,92.50
2022-12-16T17:05:46.999Z,92.96
2022-12-16T17:08:32.761Z,92.97
2022-12-16T17:11:19.347Z,92.91
2022-12-16T17:14:05.080Z,93.13
2022-12-16T17:16:50.832Z,93.33
2022-12-16T17:19:37.946Z,93.25
2022-12-16T17:22:23.010Z,93.04
2022-12-16T17:25:08.948Z,93.53
2022-12-16T17:27:54.833Z,93.69
2022-12-16T17:30:45.156Z,93.57
2022-12-16T17:33:33.584Z,93.57
2022-12-16T17:36:21.368Z,93.72
2022-12-16T17:39:10.036Z,94.06
2022-12-16T17:41:56.008Z,94.41
2022-12-16T17:44:41.997Z,94.41
2022-12-16T17:47:27.830Z,95.07
2022-12-16T17:50:13.665Z,95.25
2022-12-16T17:53:01.252Z,95.64
2022-12-16T17:55:47.299Z,95.37
2022-12-16T17:58:33.092Z,95.36
2022-12-16T18:01:30.892Z,95.73
2022-12-16T18:04:16.827Z,95.71
2022-12-16T18:07:02.614Z,95.27
2022-12-16T18:09:50.005Z,95.13
2022-12-16T18:12:35.953Z,95.68
2022-12-16T18:15:22.224Z,95.42
2022-12-16T18:18:08.626Z,95.64
2022-12-16T18:20:54.667Z,95.32
2022-12-16T18:23:40.741Z,95.00
2022-12-16T18:26:28.500Z,95.39
2022-12-16T18:29:14.621Z,95.56
2022-12-16T18:32:00.521Z,96.01
2022-12-16T18:34:47.049Z,96.02
2022-12-16T18:37:33.030Z,96.26
2022-12-16T18:40:18.801Z,96.10
2022-12-16T18:43:05.847Z,95.63
2022-12-16T18:45:51.747Z,95.91
2022-12-16T18:48:37.862Z,95.86
2022-12-16T18:51:23.900Z,96.05
2022-12-16T18:54:09.944Z,96.22
2022-12-16T18:56:55.715Z,96.09
2022-12-16T18:59:48.383Z,96.36
2022-12-16T19:02:34.307Z,95.90
2022-12-16T19:05:20.252Z,96.23
2022-12-16T19:08:09.932Z,95.78
2022-12-16T19:10:58.755Z,96.30
2022-12-16T19:13:44.478Z,95.67
2022-12-16T19:16:31.655Z,95.92
2022-12-16T19:19:20.159Z,95.52
2022-12-16T19:22:09.235Z,95.78
2022-12-16T19:28:00.916Z,95.01
2022-12-16T19:30:46.911Z,95.22
2022-12-16T19:33:34.337Z,95.54
2022-12-16T19:36:20.629Z,95.72
2022-12-16T19:39:06.510Z,95.43
2022-12-16T19:41:53.495Z,95.35
2022-12-16T19:44:42.344Z,95.64
2022-12-16T19:47:28.135Z,95.57
2022-12-16T19:50:15.301Z,96.06
2022-12-16T19:53:01.030Z,95.92
2022-12-16T19:55:47.312Z,96.19
2022-12-16T19:58:37.189Z,95.90
2022-12-16T20:01:27.829Z,96.58
2022-12-16T20:04:16.022Z,96.58
2022-12-16T20:07:03.355Z,96.65
2022-12-16T20:09:49.262Z,96.47
2022-12-16T20:12:35.375Z,96.31
2022-12-16T20:15:21.503Z,96.74
2022-12-16T20:18:07.385Z,96.29
2022-12-16T20:20:55.423Z,95.89
2022-12-16T20:23:43.818Z,95.67
2022-12-16T20:26:30.271Z,95.57
2022-12-16T20:29:12.983Z,95.60
2022-12-16T20:31:59.708Z,95.30
2022-12-16T20:34:46.871Z,95.51
2022-12-16T20:37:33.821Z,95.41
2022-12-16T20:40:25.704Z,95.56
2022-12-16T20:43:12.854Z,95.54
2022-12-16T20:46:00.217Z,95.82
2022-12-16T20:48:47.309Z,95.75
2022-12-16T20:51:33.932Z,95.51
2022-12-16T20:54:19.508Z,95.06
2022-12-16T20:57:12.560Z,95.42
2022-12-16T21:00:00.574Z,95.26
2022-12-16T21:02:47.959Z,94.81
2022-12-16T21:05:34.615Z,95.20
2022-12-16T21:08:20.740Z,94.91
2022-12-16T21:11:06.780Z,94.76
2022-12-16T21:13:56.542Z,94.71
2022-12-16T21:14:28.286Z,95.60
2022-12-16T21:16:42.458Z,95.13
2022-12-16T21:19:33.257Z,94.97
2022-12-16T21:22:20.540Z,94.88
2022-12-16T21:25:07.018Z,94.90
2022-12-16T21:27:54.398Z,94.68
2022-12-16T21:30:43.405Z,94.57
2022-12-16T21:33:34.710Z,93.75
2022-12-16T21:36:22.548Z,93.80
2022-12-16T21:39:09.250Z,94.42
2022-12-16T21:41:56.283Z,94.45
2022-12-16T21:44:43.080Z,94.62
2022-12-16T21:47:31.186Z,94.72
2022-12-16T21:50:18.478Z,95.01
2022-12-16T21:53:05.479Z,95.66
2022-12-16T21:55:52.405Z,95.21
2022-12-16T21:58:40.837Z,95.52
2022-12-16T22:01:26.909Z,95.44
2022-12-16T22:04:14.355Z,95.77
2022-12-16T22:07:00.683Z,95.70
2022-12-16T22:09:46.707Z,95.57
2022-12-16T22:12:32.651Z,95.62
2022-12-16T22:15:18.353Z,96.20
2022-12-16T22:18:04.121Z,96.25
2022-12-16T22:20:51.878Z,96.20
2022-12-16T22:23:38.429Z,95.79
2022-12-16T22:26:24.615Z,96.47
2022-12-16T22:29:11.021Z,96.79
2022-12-16T22:31:57.138Z,96.73
2022-12-16T22:34:43.008Z,96.89
2022-12-16T22:37:30.198Z,96.60
2022-12-16T22:40:16.093Z,96.54
2022-12-16T22:43:02.164Z,96.38
2022-12-16T22:45:48.334Z,96.38
2022-12-16T22:48:34.268Z,96.45
2022-12-16T22:51:20.234Z,96.46
2022-12-16T22:54:08.203Z,96.20
2022-12-16T22:56:56.350Z,96.73
2022-12-16T22:59:42.338Z,96.71
2022-12-16T23:02:28.719Z,96.37
2022-12-16T23:05:14.408Z,96.78
2022-12-16T23:08:00.821Z,96.20
2022-12-16T23:10:48.394Z,96.09
2022-12-16T23:13:34.419Z,96.72
2022-12-16T23:16:31.719Z,96.36
2022-12-16T23:19:17.430Z,96.47
2022-12-16T23:22:03.401Z,96.66
2022-12-16T23:24:49.318Z,96.48
2022-12-16T23:27:51.300Z,96.54
2022-12-16T23:30:38.224Z,96.24
2022-12-16T23:33:24.168Z,96.43
2022-12-16T23:36:10.318Z,96.25
2022-12-16T23:38:56.392Z,96.40
2022-12-16T23:41:42.377Z,96.11
2022-12-16T23:44:30.031Z,96.04
2022-12-16T23:47:17.368Z,95.92
2022-12-16T23:50:04.045Z,95.62
2022-12-16T23:52:50.071Z,95.67
2022-12-16T23:55:36.694Z,95.73
2022-12-16T23:58:23.665Z,95.48
